Time;durP1;ratioP1;P1;durP2;ratioP2;P2;SDS_P1;SDS_P2;PMS_P1;PMS_P2;Temp;Humidity;BMP_temperature;BMP_pressure;BME280_temperature;BME280_humidity;BME280_pressure;Samples;Min_cycle;Max_cycle;Signal;HPM_P1;HPM_P2
2020/12/29 00:00:52;;;;;;;3.70;2.40;;;4.10;83.30;;;;;;5089260;28;20183;-75
2020/12/29 00:03:19;;;;;;;2.40;1.83;;;4.10;83.80;;;;;;5089845;28;20198;-74
2020/12/29 00:05:46;;;;;;;3.65;2.25;;;4.10;85.30;;;;;;5089718;28;20465;-74
2020/12/29 00:08:13;;;;;;;3.13;1.90;;;4.00;86.80;;;;;;5090860;28;20180;-74
2020/12/29 00:10:39;;;;;;;2.28;1.75;;;4.00;87.80;;;;;;5090872;28;20779;-75
2020/12/29 00:13:06;;;;;;;2.03;1.47;;;4.00;88.60;;;;;;5087083;28;20203;-74
2020/12/29 00:15:32;;;;;;;3.20;1.40;;;3.90;89.50;;;;;;5089613;28;20420;-74
2020/12/29 00:17:58;;;;;;;1.70;1.40;;;3.90;90.10;;;;;;5089852;28;20943;-73
2020/12/29 00:20:24;;;;;;;2.13;1.50;;;3.80;90.50;;;;;;5091405;28;20436;-73
2020/12/29 00:22:50;;;;;;;2.20;1.37;;;3.80;90.60;;;;;;5091322;28;20433;-73
2020/12/29 00:25:18;;;;;;;1.60;1.10;;;3.80;90.60;;;;;;5090275;28;20490;-74
2020/12/29 00:27:44;;;;;;;4.53;1.30;;;3.80;90.70;;;;;;5091367;28;20718;-73
2020/12/29 00:30:10;;;;;;;1.75;1.10;;;3.80;90.80;;;;;;5090507;28;20417;-74
2020/12/29 00:32:35;;;;;;;1.63;1.07;;;3.90;90.90;;;;;;5090659;28;20221;-73
2020/12/29 00:35:01;;;;;;;1.67;1.20;;;3.90;90.80;;;;;;5088903;28;20259;-74
2020/12/29 00:37:27;;;;;;;1.50;1.10;;;3.80;90.90;;;;;;5088131;28;20735;-73
2020/12/29 00:39:53;;;;;;;2.17;1.30;;;3.80;90.90;;;;;;5090059;28;20191;-74
2020/12/29 00:42:18;;;;;;;1.87;1.07;;;3.80;91.10;;;;;;5089727;28;20224;-74
2020/12/29 00:44:44;;;;;;;3.43;1.20;;;3.90;91.10;;;;;;5088326;28;20707;-75
2020/12/29 00:47:11;;;;;;;1.20;0.97;;;3.90;90.90;;;;;;5089126;28;20214;-74
2020/12/29 00:49:38;;;;;;;1.07;0.80;;;3.90;90.90;;;;;;5091887;28;20421;-74
2020/12/29 00:52:04;;;;;;;1.13;0.90;;;3.90;90.80;;;;;;5091396;28;20579;-75
2020/12/29 00:54:30;;;;;;;0.90;0.80;;;4.00;90.30;;;;;;5091453;28;20439;-73
2020/12/29 00:56:56;;;;;;;1.30;0.80;;;4.10;90.00;;;;;;5091838;28;20986;-74
2020/12/29 00:59:21;;;;;;;1.33;0.90;;;4.10;89.70;;;;;;5094200;28;20199;-74
2020/12/29 01:01:57;;;;;;;2.33;0.80;;;4.20;89.50;;;;;;5090595;28;20187;-73
2020/12/29 01:04:26;;;;;;;1.47;1.00;;;4.30;89.90;;;;;;5089329;28;20588;-75
2020/12/29 01:06:52;;;;;;;2.30;0.90;;;4.30;90.30;;;;;;5076225;28;20409;-75
2020/12/29 01:09:18;;;;;;;1.00;1.00;;;4.20;91.00;;;;;;5090833;28;20456;-76
2020/12/29 01:11:45;;;;;;;1.30;0.97;;;4.20;91.40;;;;;;5092124;28;20409;-76
2020/12/29 01:14:11;;;;;;;1.23;0.80;;;4.10;91.70;;;;;;5092504;28;20401;-76
2020/12/29 01:16:37;;;;;;;0.83;0.73;;;4.10;92.30;;;;;;5105542;28;20179;-75
2020/12/29 01:19:03;;;;;;;1.30;1.00;;;4.00;93.20;;;;;;5108753;28;20492;-76
2020/12/29 01:21:28;;;;;;;1.27;0.80;;;3.90;93.90;;;;;;5108915;28;20428;-74
2020/12/29 01:23:54;;;;;;;1.03;0.70;;;3.90;94.20;;;;;;5100791;28;20255;-71
2020/12/29 01:26:26;;;;;;;1.50;0.90;;;3.90;94.50;;;;;;5089914;28;20260;-73
2020/12/29 01:28:54;;;;;;;1.30;0.80;;;3.80;94.60;;;;;;5089103;28;20195;-75
2020/12/29 01:31:26;;;;;;;1.37;0.90;;;3.80;94.80;;;;;;5090205;28;20508;-75
2020/12/29 01:33:52;;;;;;;0.73;0.70;;;3.80;95.30;;;;;;5090048;28;20490;-74
2020/12/29 01:36:18;;;;;;;0.83;0.80;;;3.80;95.40;;;;;;5090213;28;21097;-76
2020/12/29 01:38:44;;;;;;;1.47;0.87;;;3.80;95.40;;;;;;5089412;28;20433;-74
2020/12/29 01:41:10;;;;;;;1.97;0.90;;;3.80;95.30;;;;;;5090107;28;20191;-73
2020/12/29 01:43:35;;;;;;;1.37;0.90;;;3.90;95.50;;;;;;5089709;28;20443;-74
2020/12/29 01:46:01;;;;;;;1.37;0.87;;;3.90;95.50;;;;;;5089850;28;20583;-76
2020/12/29 01:48:26;;;;;;;1.70;1.00;;;3.90;95.40;;;;;;5091362;28;20183;-76
2020/12/29 01:50:53;;;;;;;1.67;0.80;;;3.90;95.50;;;;;;5094825;28;20190;-77
2020/12/29 01:53:18;;;;;;;1.23;0.90;;;3.90;95.40;;;;;;5097840;28;20198;-76
2020/12/29 01:55:44;;;;;;;0.80;0.80;;;3.90;95.40;;;;;;5094514;28;20519;-76
2020/12/29 01:58:10;;;;;;;1.03;0.87;;;3.90;95.30;;;;;;5095261;28;20183;-75
2020/12/29 02:00:36;;;;;;;1.07;0.90;;;4.00;95.00;;;;;;5095340;28;20661;-75
2020/12/29 02:03:03;;;;;;;2.40;1.00;;;4.00;94.80;;;;;;5094937;28;20444;-75
2020/12/29 02:05:30;;;;;;;1.70;0.90;;;4.10;94.70;;;;;;5093258;28;20476;-75
2020/12/29 02:07:56;;;;;;;1.30;1.00;;;4.10;94.70;;;;;;5094062;28;20428;-75
2020/12/29 02:10:23;;;;;;;0.90;0.80;;;4.10;94.70;;;;;;5097271;28;20417;-76
2020/12/29 02:12:48;;;;;;;1.13;1.10;;;4.10;94.20;;;;;;5093581;28;20532;-74
2020/12/29 02:15:14;;;;;;;1.40;1.20;;;4.10;94.20;;;;;;5101538;28;20470;-75
2020/12/29 02:17:40;;;;;;;1.30;0.70;;;4.20;93.90;;;;;;5103308;28;20183;-75
2020/12/29 02:20:07;;;;;;;1.30;0.80;;;4.20;93.30;;;;;;5103059;28;20421;-77
2020/12/29 02:22:33;;;;;;;1.10;0.73;;;4.30;92.90;;;;;;5103635;28;20207;-75
2020/12/29 02:25:07;;;;;;;0.70;0.60;;;4.30;92.80;;;;;;5107428;28;20473;-74
2020/12/29 02:27:43;;;;;;;0.67;0.60;;;4.40;92.80;;;;;;5096990;28;20417;-75
2020/12/29 02:30:09;;;;;;;1.70;1.53;;;4.40;92.90;;;;;;5093070;28;20429;-74
2020/12/29 02:32:35;;;;;;;0.80;0.70;;;4.40;92.30;;;;;;5094987;28;20462;-74
2020/12/29 02:35:01;;;;;;;1.07;0.80;;;4.50;92.00;;;;;;5092445;28;20429;-73
2020/12/29 02:37:27;;;;;;;1.23;0.80;;;4.50;91.80;;;;;;5092356;28;20187;-74
2020/12/29 02:39:53;;;;;;;0.77;0.60;;;4.60;91.10;;;;;;5090846;28;20566;-75
2020/12/29 02:42:19;;;;;;;0.70;0.60;;;4.70;90.80;;;;;;5089944;28;20665;-74
2020/12/29 02:44:45;;;;;;;0.73;0.60;;;4.80;90.30;;;;;;5089325;28;20508;-75
2020/12/29 02:47:11;;;;;;;1.10;0.80;;;4.80;90.50;;;;;;5091613;28;20457;-75
2020/12/29 02:49:37;;;;;;;1.07;0.60;;;4.80;90.40;;;;;;5090676;28;20186;-75
2020/12/29 02:52:04;;;;;;;1.53;0.60;;;4.80;90.60;;;;;;5091049;28;20329;-75
2020/12/29 02:54:29;;;;;;;0.87;0.50;;;4.90;90.40;;;;;;5090838;28;20975;-75
2020/12/29 02:56:55;;;;;;;2.10;0.70;;;4.90;90.20;;;;;;5090906;28;20421;-75
2020/12/29 02:59:26;;;;;;;3.03;0.70;;;4.80;90.10;;;;;;5091220;28;20274;-74
2020/12/29 03:01:53;;;;;;;1.10;0.50;;;4.80;90.60;;;;;;5090342;28;21099;-76
2020/12/29 03:04:19;;;;;;;1.07;0.60;;;4.80;91.10;;;;;;5090939;28;20482;-75
2020/12/29 03:06:46;;;;;;;0.70;0.60;;;4.70;91.90;;;;;;5091260;28;20633;-74
2020/12/29 03:09:13;;;;;;;0.63;0.53;;;4.60;92.50;;;;;;5091445;28;20487;-76
2020/12/29 03:11:39;;;;;;;0.67;0.50;;;4.50;93.20;;;;;;5091343;28;20833;-75
2020/12/29 03:14:07;;;;;;;1.10;0.60;;;4.50;93.40;;;;;;5089149;28;20889;-75
2020/12/29 03:16:33;;;;;;;0.80;0.60;;;4.40;93.80;;;;;;5090859;28;20486;-76
2020/12/29 03:19:01;;;;;;;0.47;0.40;;;4.40;94.00;;;;;;5096052;28;20429;-75
2020/12/29 03:21:27;;;;;;;1.17;0.63;;;4.40;94.20;;;;;;5094412;28;20441;-76
2020/12/29 03:23:53;;;;;;;0.63;0.60;;;4.30;94.30;;;;;;5098074;28;20445;-74
2020/12/29 03:26:18;;;;;;;0.80;0.60;;;4.30;94.50;;;;;;5096700;28;20681;-75
2020/12/29 03:28:45;;;;;;;0.67;0.57;;;4.30;94.80;;;;;;5097789;28;20482;-75
2020/12/29 03:31:11;;;;;;;1.03;0.60;;;4.30;95.10;;;;;;5093211;28;20689;-75
2020/12/29 03:33:37;;;;;;;0.77;0.60;;;4.30;95.20;;;;;;5091116;28;20532;-76
2020/12/29 03:36:04;;;;;;;0.60;0.60;;;4.30;95.30;;;;;;5089998;28;20429;-75
2020/12/29 03:38:30;;;;;;;0.80;0.60;;;4.20;95.40;;;;;;5090680;28;20436;-75
2020/12/29 03:40:56;;;;;;;0.50;0.50;;;4.20;95.40;;;;;;5090476;28;20421;-75
2020/12/29 03:43:22;;;;;;;1.00;0.80;;;4.20;95.60;;;;;;5090721;28;20441;-76
2020/12/29 03:45:49;;;;;;;0.73;0.60;;;4.10;95.80;;;;;;5090184;28;20472;-74
2020/12/29 03:48:22;;;;;;;1.03;0.60;;;4.10;95.80;;;;;;5090096;28;20442;-72
2020/12/29 03:50:49;;;;;;;1.73;0.80;;;4.10;95.80;;;;;;5089796;28;20998;-73
2020/12/29 03:53:15;;;;;;;0.80;0.60;;;4.00;95.80;;;;;;5090043;28;20789;-74
2020/12/29 03:55:40;;;;;;;0.83;0.67;;;4.00;95.80;;;;;;5087879;28;20433;-74
2020/12/29 03:58:07;;;;;;;0.90;0.63;;;4.00;95.80;;;;;;5088962;28;20891;-75
2020/12/29 04:00:34;;;;;;;1.47;0.77;;;4.00;95.60;;;;;;5088931;28;20195;-75
2020/12/29 04:02:59;;;;;;;0.97;0.63;;;4.00;95.60;;;;;;5088043;28;20564;-75
2020/12/29 04:05:26;;;;;;;1.13;0.60;;;4.00;95.60;;;;;;5088819;28;21264;-74
2020/12/29 04:07:52;;;;;;;0.70;0.60;;;4.10;95.20;;;;;;5089820;28;20183;-73
2020/12/29 04:10:18;;;;;;;1.07;0.70;;;4.10;95.10;;;;;;5089309;28;20417;-74
2020/12/29 04:12:45;;;;;;;2.00;0.60;;;4.10;95.00;;;;;;5077646;28;20453;-73
2020/12/29 04:15:10;;;;;;;1.07;0.50;;;4.20;94.90;;;;;;5088925;28;20434;-73
2020/12/29 04:17:38;;;;;;;3.43;1.77;;;4.20;94.90;;;;;;5090272;28;21084;-73
2020/12/29 04:20:11;;;;;;;0.60;0.50;;;4.20;95.10;;;;;;5082628;28;20444;-73
2020/12/29 04:22:39;;;;;;;1.00;0.60;;;4.20;95.10;;;;;;5089639;28;20456;-74
2020/12/29 04:25:07;;;;;;;2.17;0.73;;;4.20;95.00;;;;;;5087972;28;20483;-75
2020/12/29 04:27:33;;;;;;;1.40;0.80;;;4.20;94.90;;;;;;5088388;28;20931;-75
2020/12/29 04:29:59;;;;;;;2.03;0.70;;;4.20;95.10;;;;;;5089650;28;20429;-75
2020/12/29 04:32:25;;;;;;;3.87;0.70;;;4.20;94.80;;;;;;5096976;28;20512;-74
2020/12/29 04:34:51;;;;;;;0.90;0.53;;;4.20;94.80;;;;;;5107704;28;20179;-75
2020/12/29 04:37:17;;;;;;;0.70;0.60;;;4.10;94.80;;;;;;5103963;28;20841;-74
2020/12/29 04:39:43;;;;;;;0.50;0.50;;;4.10;94.80;;;;;;5097104;28;20186;-72
2020/12/29 04:42:14;;;;;;;2.13;0.70;;;4.20;94.80;;;;;;5090666;28;20448;-73
2020/12/29 04:44:41;;;;;;;1.00;0.83;;;4.20;94.60;;;;;;5088352;28;20460;-73
2020/12/29 04:47:08;;;;;;;1.00;0.70;;;4.30;93.80;;;;;;5090443;28;20428;-73
2020/12/29 04:49:34;;;;;;;1.17;0.50;;;4.30;93.60;;;;;;5090451;28;20430;-73
2020/12/29 04:52:04;;;;;;;2.47;0.80;;;4.30;93.30;;;;;;5090122;28;21386;-73
2020/12/29 04:54:33;;;;;;;1.43;0.60;;;4.30;93.20;;;;;;5087934;28;20426;-73
2020/12/29 04:57:01;;;;;;;0.70;0.50;;;4.30;93.40;;;;;;5090007;28;20421;-73
2020/12/29 04:59:28;;;;;;;1.00;0.60;;;4.30;93.70;;;;;;5090603;28;20793;-73
2020/12/29 05:01:54;;;;;;;2.57;0.90;;;4.20;94.50;;;;;;5090066;28;20521;-75
2020/12/29 05:04:22;;;;;;;0.73;0.60;;;4.10;95.30;;;;;;5089232;28;20520;-74
2020/12/29 05:06:48;;;;;;;1.13;0.70;;;4.00;95.70;;;;;;5075823;28;20529;-74
2020/12/29 05:09:14;;;;;;;1.07;0.60;;;3.90;96.20;;;;;;5095276;28;20428;-73
2020/12/29 05:11:39;;;;;;;1.90;0.90;;;3.90;96.50;;;;;;5090342;28;20942;-73
2020/12/29 05:14:05;;;;;;;2.80;0.73;;;3.80;96.60;;;;;;5091027;28;20228;-73
2020/12/29 05:16:39;;;;;;;2.53;0.73;;;3.80;96.80;;;;;;5091070;28;20560;-73
2020/12/29 05:19:14;;;;;;;1.37;0.70;;;3.80;96.90;;;;;;5086651;28;20524;-74
2020/12/29 05:21:41;;;;;;;1.13;0.70;;;3.80;96.70;;;;;;5079056;28;20436;-73
2020/12/29 05:24:15;;;;;;;2.00;0.70;;;3.80;96.70;;;;;;5098646;28;20429;-72
2020/12/29 05:26:42;;;;;;;4.70;0.80;;;3.90;96.60;;;;;;5093267;28;20456;-74
2020/12/29 05:29:13;;;;;;;1.07;0.70;;;3.90;96.50;;;;;;5092620;28;20519;-74
2020/12/29 05:31:41;;;;;;;0.77;0.57;;;3.90;96.60;;;;;;5093649;28;20443;-74
2020/12/29 05:34:16;;;;;;;1.10;0.80;;;3.90;96.40;;;;;;5093721;28;20436;-73
2020/12/29 05:36:44;;;;;;;5.55;0.80;;;3.90;96.20;;;;;;5094005;28;20478;-77
2020/12/29 05:39:10;;;;;;;0.90;0.70;;;4.00;96.00;;;;;;5095459;28;20440;-77
2020/12/29 05:41:44;;;;;;;3.13;0.60;;;4.00;95.30;;;;;;5094200;28;20481;-77
2020/12/29 05:44:13;;;;;;;0.80;0.50;;;4.10;94.70;;;;;;5081146;28;20802;-79
2020/12/29 05:46:39;;;;;;;1.17;0.60;;;4.10;94.60;;;;;;5094928;28;20475;-78
2020/12/29 05:49:05;;;;;;;0.60;0.50;;;4.20;94.50;;;;;;5095224;28;20441;-80
2020/12/29 05:51:33;;;;;;;0.80;0.50;;;4.20;94.60;;;;;;5096804;28;20428;-78
2020/12/29 05:54:03;;;;;;;0.80;0.57;;;4.20;94.20;;;;;;5098296;28;20444;-79
2020/12/29 05:56:33;;;;;;;1.40;0.50;;;4.20;94.40;;;;;;5101782;28;20456;-77
2020/12/29 05:59:02;;;;;;;1.30;0.63;;;4.20;94.70;;;;;;5098231;28;20524;-77
2020/12/29 06:01:48;;;;;;;0.60;0.50;;;4.20;94.80;;;;;;5094720;28;20486;-78
2020/12/29 06:04:14;;;;;;;0.63;0.40;;;4.10;95.20;;;;;;5095231;28;20529;-77
2020/12/29 06:06:42;;;;;;;1.93;0.83;;;4.10;95.40;;;;;;5095035;28;21186;-77
2020/12/29 06:09:12;;;;;;;1.08;0.70;;;4.00;95.60;;;;;;5100170;28;20239;-78
2020/12/29 06:11:51;;;;;;;1.20;0.70;;;4.00;95.80;;;;;;5084548;28;20176;-75
2020/12/29 06:14:25;;;;;;;1.20;0.70;;;4.00;95.80;;;;;;5091678;28;20233;-74
2020/12/29 06:16:55;;;;;;;1.15;0.70;;;3.90;95.70;;;;;;5093469;28;20400;-75
2020/12/29 06:19:28;;;;;;;2.57;0.70;;;3.90;95.70;;;;;;5083355;28;20211;-75
2020/12/29 06:21:57;;;;;;;1.33;0.73;;;3.90;95.50;;;;;;5081577;28;20468;-75
2020/12/29 06:24:26;;;;;;;1.13;0.77;;;3.90;95.50;;;;;;5092207;28;20195;-73
2020/12/29 06:26:53;;;;;;;1.53;0.93;;;3.90;95.50;;;;;;5092605;28;20543;-74
2020/12/29 06:29:22;;;;;;;6.80;0.80;;;3.90;95.40;;;;;;5092435;28;20482;-74
2020/12/29 06:31:51;;;;;;;3.23;0.80;;;3.90;95.30;;;;;;5092607;28;20413;-73
2020/12/29 06:34:18;;;;;;;1.33;0.60;;;3.90;95.30;;;;;;5091763;28;20474;-75
2020/12/29 06:36:47;;;;;;;1.73;0.68;;;3.90;95.30;;;;;;5092436;28;20421;-73
2020/12/29 06:39:14;;;;;;;0.83;0.60;;;3.90;95.10;;;;;;5091453;28;20191;-72
2020/12/29 06:41:41;;;;;;;1.33;0.77;;;4.00;95.00;;;;;;5091756;28;20934;-72
2020/12/29 06:44:07;;;;;;;3.10;0.80;;;4.00;95.00;;;;;;5093974;28;20460;-74
2020/12/29 06:46:32;;;;;;;1.43;0.80;;;4.00;95.00;;;;;;5090998;28;20500;-73
2020/12/29 06:49:18;;;;;;;1.10;0.70;;;4.00;94.90;;;;;;5092159;28;20783;-75
2020/12/29 06:51:45;;;;;;;1.17;1.00;;;4.00;94.70;;;;;;5091632;28;20186;-74
2020/12/29 06:54:14;;;;;;;1.37;0.63;;;4.00;94.90;;;;;;5091590;28;20416;-73
2020/12/29 06:56:59;;;;;;;1.10;0.70;;;4.00;94.90;;;;;;5091599;28;20429;-74
2020/12/29 06:59:24;;;;;;;1.37;0.77;;;4.00;95.10;;;;;;5091750;28;20528;-73
2020/12/29 07:01:50;;;;;;;1.27;0.60;;;3.90;95.10;;;;;;5091900;28;20504;-73
2020/12/29 07:04:19;;;;;;;1.67;0.70;;;3.90;95.30;;;;;;5091571;28;20187;-73
2020/12/29 07:06:45;;;;;;;2.10;0.87;;;3.90;95.30;;;;;;5092035;28;21145;-74
2020/12/29 07:09:19;;;;;;;3.10;0.87;;;3.90;95.10;;;;;;5091369;28;20578;-74
2020/12/29 07:12:00;;;;;;;2.33;0.70;;;3.90;95.00;;;;;;5072079;28;20795;-73
2020/12/29 07:14:31;;;;;;;1.83;0.70;;;4.00;94.70;;;;;;5086500;28;20436;-74
2020/12/29 07:16:59;;;;;;;1.60;0.67;;;4.00;94.40;;;;;;5092157;28;20421;-74
2020/12/29 07:19:26;;;;;;;1.10;0.60;;;4.00;94.30;;;;;;5092189;28;20453;-75
2020/12/29 07:21:53;;;;;;;1.10;0.77;;;4.10;94.20;;;;;;5091895;28;20486;-73
2020/12/29 07:24:19;;;;;;;2.40;0.70;;;4.10;94.20;;;;;;5091141;28;20417;-74
2020/12/29 07:26:45;;;;;;;1.43;0.73;;;4.10;94.30;;;;;;5091947;28;20484;-75
2020/12/29 07:29:11;;;;;;;1.77;0.80;;;4.10;94.20;;;;;;5091862;28;20424;-74
2020/12/29 07:31:41;;;;;;;3.67;0.70;;;4.10;94.40;;;;;;5091339;28;20551;-74
2020/12/29 07:34:12;;;;;;;1.33;0.80;;;4.10;94.60;;;;;;5091175;28;20186;-74
2020/12/29 07:36:48;;;;;;;1.43;1.27;;;4.10;94.60;;;;;;5091816;28;20428;-73
2020/12/29 07:39:16;;;;;;;3.23;1.53;;;4.10;94.60;;;;;;5090088;28;20483;-75
2020/12/29 07:41:43;;;;;;;1.10;0.90;;;4.10;94.50;;;;;;5091766;28;20428;-73
2020/12/29 07:44:09;;;;;;;2.80;1.53;;;4.10;94.60;;;;;;5091115;28;20445;-74
2020/12/29 07:46:35;;;;;;;1.77;1.30;;;4.10;94.60;;;;;;5090315;28;20551;-73
2020/12/29 07:49:01;;;;;;;2.50;0.80;;;4.10;94.50;;;;;;5091486;28;20447;-74
2020/12/29 07:51:27;;;;;;;1.53;1.00;;;4.20;94.50;;;;;;5090866;28;20425;-73
2020/12/29 07:53:53;;;;;;;3.73;1.10;;;4.20;94.40;;;;;;5091108;28;20623;-73
2020/12/29 07:56:20;;;;;;;1.83;1.10;;;4.20;94.30;;;;;;5090176;28;20888;-74
2020/12/29 07:58:46;;;;;;;1.60;1.00;;;4.20;94.10;;;;;;5091591;28;20425;-74
2020/12/29 08:01:13;;;;;;;3.23;0.70;;;4.30;94.20;;;;;;5092074;28;20425;-74
2020/12/29 08:03:39;;;;;;;2.30;0.90;;;4.30;94.10;;;;;;5093893;28;20287;-74
2020/12/29 08:06:14;;;;;;;1.63;0.80;;;4.30;94.00;;;;;;5092978;28;20476;-75
2020/12/29 08:08:41;;;;;;;1.27;0.80;;;4.30;93.90;;;;;;5093774;28;20424;-72
2020/12/29 08:11:10;;;;;;;2.25;1.17;;;4.40;93.70;;;;;;5091585;28;20430;-74
2020/12/29 08:13:36;;;;;;;2.13;1.27;;;4.40;93.80;;;;;;5091769;28;20199;-74
2020/12/29 08:16:02;;;;;;;3.07;1.17;;;4.40;93.80;;;;;;5090616;28;20805;-73
2020/12/29 08:18:28;;;;;;;1.90;0.90;;;4.40;93.50;;;;;;5087934;28;20266;-73
2020/12/29 08:20:57;;;;;;;2.60;0.70;;;4.40;93.50;;;;;;5086415;28;20520;-74
2020/12/29 08:23:27;;;;;;;2.43;1.03;;;4.50;93.50;;;;;;5091889;28;20233;-74
2020/12/29 08:25:58;;;;;;;2.57;1.13;;;4.50;93.50;;;;;;5093259;28;21399;-74
2020/12/29 08:28:30;;;;;;;0.90;0.70;;;4.50;93.40;;;;;;5093472;28;21143;-74
2020/12/29 08:30:57;;;;;;;4.40;1.00;;;4.60;93.30;;;;;;5089655;28;20421;-74
2020/12/29 08:33:25;;;;;;;4.43;0.97;;;4.60;93.30;;;;;;5089487;28;20479;-74
2020/12/29 08:35:59;;;;;;;2.83;1.20;;;4.60;93.20;;;;;;5090091;28;20417;-74
2020/12/29 08:38:30;;;;;;;1.77;0.90;;;4.60;93.20;;;;;;5090890;28;20424;-75
2020/12/29 08:41:08;;;;;;;2.40;0.90;;;4.70;93.30;;;;;;5088915;28;20429;-74
2020/12/29 08:43:43;;;;;;;1.33;0.90;;;4.70;93.60;;;;;;5090582;28;20440;-75
2020/12/29 08:46:12;;;;;;;3.63;1.70;;;4.60;94.40;;;;;;5090193;28;20471;-76
2020/12/29 08:48:40;;;;;;;2.00;1.20;;;4.60;94.80;;;;;;5090954;28;20814;-74
2020/12/29 08:51:21;;;;;;;2.20;1.70;;;4.50;95.30;;;;;;5091358;28;20809;-75
2020/12/29 08:53:47;;;;;;;1.50;1.00;;;4.40;95.80;;;;;;5090673;28;20429;-73
2020/12/29 08:56:26;;;;;;;2.43;1.07;;;4.30;96.20;;;;;;5088742;28;20433;-75
2020/12/29 08:58:55;;;;;;;4.50;1.67;;;4.20;96.30;;;;;;5089775;28;20434;-75
2020/12/29 09:01:30;;;;;;;7.63;1.50;;;4.20;96.50;;;;;;5090297;28;20421;-74
2020/12/29 09:03:56;;;;;;;3.10;1.80;;;4.20;97.00;;;;;;5089699;28;20444;-75
2020/12/29 09:06:22;;;;;;;3.40;1.67;;;4.20;97.20;;;;;;5090255;28;20606;-74
2020/12/29 09:08:48;;;;;;;5.77;1.20;;;4.20;97.50;;;;;;5092636;28;20259;-74
2020/12/29 09:11:15;;;;;;;3.30;0.97;;;4.20;97.40;;;;;;5098668;28;20515;-73
2020/12/29 09:14:02;;;;;;;7.47;1.50;;;4.10;97.20;;;;;;5093188;28;20205;-75
2020/12/29 09:16:27;;;;;;;2.27;1.10;;;4.10;97.30;;;;;;5090755;28;20946;-74
2020/12/29 09:18:53;;;;;;;2.17;0.93;;;4.10;97.30;;;;;;5091231;28;20421;-76
2020/12/29 09:21:24;;;;;;;2.20;1.23;;;4.00;97.20;;;;;;5090675;28;20219;-73
2020/12/29 09:24:01;;;;;;;1.43;1.00;;;4.00;97.50;;;;;;5091344;28;20207;-76
2020/12/29 09:26:27;;;;;;;1.47;0.90;;;4.00;98.00;;;;;;5091141;28;20453;-73
2020/12/29 09:28:53;;;;;;;3.43;1.03;;;4.00;98.00;;;;;;5090139;28;20935;-73
2020/12/29 09:31:26;;;;;;;1.00;0.70;;;4.00;97.70;;;;;;5091614;28;20966;-77
2020/12/29 09:33:52;;;;;;;1.60;0.90;;;4.00;97.60;;;;;;5090279;28;20433;-75
2020/12/29 09:36:19;;;;;;;2.33;0.97;;;3.90;97.20;;;;;;5090999;28;20427;-73
2020/12/29 09:38:50;;;;;;;1.07;0.87;;;3.90;97.00;;;;;;5090853;28;20409;-75
2020/12/29 09:41:16;;;;;;;1.40;0.93;;;3.90;97.10;;;;;;5091597;28;20505;-76
2020/12/29 09:43:46;;;;;;;2.13;1.30;;;3.90;97.30;;;;;;5095408;28;20468;-74
2020/12/29 09:46:12;;;;;;;1.75;1.20;;;4.00;97.40;;;;;;5094915;28;20203;-75
2020/12/29 09:48:38;;;;;;;2.20;1.00;;;4.00;97.40;;;;;;5094223;28;20246;-76
2020/12/29 09:51:04;;;;;;;2.97;1.00;;;4.00;97.10;;;;;;5094038;28;20417;-75
2020/12/29 09:53:30;;;;;;;1.90;1.10;;;4.10;97.10;;;;;;5094753;28;20957;-75
2020/12/29 09:55:56;;;;;;;1.50;1.17;;;4.10;97.00;;;;;;5094331;28;20432;-74
2020/12/29 09:58:23;;;;;;;2.20;0.93;;;4.10;96.70;;;;;;5094275;28;20475;-74
2020/12/29 10:00:50;;;;;;;2.43;1.30;;;4.20;96.60;;;;;;5095299;28;20424;-76
2020/12/29 10:03:16;;;;;;;7.40;1.33;;;4.20;96.20;;;;;;5093744;28;20547;-76
2020/12/29 10:05:45;;;;;;;1.53;1.10;;;4.30;95.90;;;;;;5092854;28;20448;-75
2020/12/29 10:08:12;;;;;;;1.90;1.30;;;4.30;95.60;;;;;;5092185;28;20429;-74
2020/12/29 10:10:38;;;;;;;1.80;1.27;;;4.30;95.50;;;;;;5094744;28;20409;-76
2020/12/29 10:13:04;;;;;;;2.40;1.03;;;4.30;95.30;;;;;;5096106;28;20448;-76
2020/12/29 10:15:30;;;;;;;2.00;1.30;;;4.40;95.20;;;;;;5093717;28;20433;-76
2020/12/29 10:17:56;;;;;;;1.57;1.10;;;4.50;94.60;;;;;;5096616;28;20516;-75
2020/12/29 10:20:21;;;;;;;1.10;0.80;;;4.40;94.40;;;;;;5110286;28;20452;-74
2020/12/29 10:22:47;;;;;;;4.30;1.53;;;4.50;94.50;;;;;;5113199;28;20199;-76
2020/12/29 10:25:16;;;;;;;1.40;0.83;;;4.50;94.40;;;;;;5094107;28;20238;-76
2020/12/29 10:27:44;;;;;;;2.83;1.10;;;4.50;94.10;;;;;;5095385;28;20417;-77
2020/12/29 10:30:10;;;;;;;3.53;1.30;;;4.50;94.00;;;;;;5092995;28;20540;-75
2020/12/29 10:32:37;;;;;;;2.40;1.20;;;4.50;94.00;;;;;;5093685;28;20840;-74
2020/12/29 10:35:03;;;;;;;3.33;1.20;;;4.60;94.10;;;;;;5093955;28;20414;-76
2020/12/29 10:37:29;;;;;;;1.77;1.10;;;4.60;94.10;;;;;;5098882;28;20429;-77
2020/12/29 10:39:55;;;;;;;1.20;0.93;;;4.70;93.70;;;;;;5093682;28;20432;-75
2020/12/29 10:42:21;;;;;;;1.87;0.90;;;4.70;93.40;;;;;;5095417;28;20206;-75
2020/12/29 10:44:47;;;;;;;1.27;0.80;;;4.80;93.10;;;;;;5096138;28;20441;-75
2020/12/29 10:47:13;;;;;;;1.80;0.83;;;4.80;93.00;;;;;;5095414;28;20485;-76
2020/12/29 10:49:38;;;;;;;1.33;1.00;;;4.80;92.40;;;;;;5095882;28;21062;-75
2020/12/29 10:52:04;;;;;;;2.20;1.37;;;4.90;92.30;;;;;;5096327;28;20199;-76
2020/12/29 10:54:30;;;;;;;2.57;1.00;;;5.00;92.30;;;;;;5095386;28;20191;-75
2020/12/29 10:56:55;;;;;;;2.50;1.10;;;5.10;92.10;;;;;;5096131;28;20275;-74
2020/12/29 10:59:21;;;;;;;1.30;0.90;;;5.20;92.00;;;;;;5098261;28;20182;-75
2020/12/29 11:01:47;;;;;;;2.20;0.80;;;5.20;91.30;;;;;;5096544;28;20183;-75
2020/12/29 11:04:13;;;;;;;2.40;1.30;;;5.20;90.80;;;;;;5100303;28;20212;-75
2020/12/29 11:06:38;;;;;;;1.93;1.20;;;5.30;91.20;;;;;;5100838;28;20203;-74
2020/12/29 11:09:04;;;;;;;1.00;0.70;;;5.30;90.70;;;;;;5102884;28;20227;-74
2020/12/29 11:11:30;;;;;;;3.20;1.07;;;5.20;90.60;;;;;;5099341;28;20194;-75
2020/12/29 11:13:56;;;;;;;3.00;1.00;;;5.20;90.50;;;;;;5094035;28;20425;-73
2020/12/29 11:16:21;;;;;;;1.70;1.00;;;5.20;90.80;;;;;;5092786;28;20612;-75
2020/12/29 11:18:49;;;;;;;1.17;1.00;;;5.20;90.80;;;;;;5092740;28;20555;-75
2020/12/29 11:21:16;;;;;;;1.00;1.00;;;5.20;91.00;;;;;;5092002;28;20183;-74
2020/12/29 11:23:42;;;;;;;1.97;1.00;;;5.40;90.90;;;;;;5092728;28;20535;-74
2020/12/29 11:26:08;;;;;;;3.20;0.90;;;5.50;90.40;;;;;;5091802;28;20536;-75
2020/12/29 11:28:34;;;;;;;1.00;0.73;;;5.70;89.20;;;;;;5091253;28;20429;-75
2020/12/29 11:31:00;;;;;;;1.33;0.73;;;5.80;87.10;;;;;;5090625;28;20195;-74
2020/12/29 11:33:25;;;;;;;1.20;0.63;;;5.90;87.10;;;;;;5092038;28;21133;-74
2020/12/29 11:35:51;;;;;;;0.90;0.60;;;6.00;86.30;;;;;;5091738;28;20263;-74
2020/12/29 11:38:20;;;;;;;1.60;0.70;;;5.90;86.30;;;;;;5092653;28;20193;-74
2020/12/29 11:40:46;;;;;;;1.67;0.80;;;5.90;86.20;;;;;;5090845;28;20928;-74
2020/12/29 11:43:12;;;;;;;1.43;0.60;;;5.90;86.50;;;;;;5091816;28;20449;-74
2020/12/29 11:45:38;;;;;;;1.73;0.60;;;5.90;86.00;;;;;;5092539;28;20574;-74
2020/12/29 11:48:04;;;;;;;1.67;0.53;;;5.90;85.30;;;;;;5093324;28;20438;-75
2020/12/29 11:50:30;;;;;;;1.33;0.90;;;5.90;83.60;;;;;;5092647;28;20454;-74
2020/12/29 11:52:56;;;;;;;1.20;0.70;;;5.90;83.80;;;;;;5094017;28;20203;-74
2020/12/29 11:55:22;;;;;;;1.87;0.90;;;5.90;84.30;;;;;;5094395;28;20489;-75
2020/12/29 11:57:47;;;;;;;1.40;0.80;;;6.00;84.00;;;;;;5098468;28;20259;-74
2020/12/29 12:00:13;;;;;;;1.63;0.80;;;6.00;83.30;;;;;;5096528;28;20191;-74
2020/12/29 12:02:39;;;;;;;2.13;0.70;;;5.90;82.20;;;;;;5090772;28;20715;-75
2020/12/29 12:05:05;;;;;;;0.80;0.50;;;6.00;83.10;;;;;;5091978;28;20425;-75
2020/12/29 12:07:31;;;;;;;1.10;0.70;;;6.10;82.70;;;;;;5093465;28;20179;-73
2020/12/29 12:09:56;;;;;;;1.87;0.60;;;6.00;80.90;;;;;;5093411;28;20182;-73
2020/12/29 12:12:22;;;;;;;1.87;0.77;;;6.00;80.90;;;;;;5082159;28;20196;-75
2020/12/29 12:14:48;;;;;;;1.40;0.90;;;6.00;81.70;;;;;;5090630;28;20179;-74
2020/12/29 12:17:14;;;;;;;1.80;0.97;;;6.10;81.50;;;;;;5094407;28;20232;-76
2020/12/29 12:19:39;;;;;;;1.53;0.60;;;6.10;81.10;;;;;;5092730;28;20646;-74
2020/12/29 12:22:05;;;;;;;2.30;0.60;;;6.10;80.00;;;;;;5090309;28;20222;-74
2020/12/29 12:24:31;;;;;;;5.33;0.80;;;5.90;80.30;;;;;;5091003;28;20183;-75
2020/12/29 12:26:57;;;;;;;1.17;1.00;;;5.80;80.80;;;;;;5091098;28;20218;-75
2020/12/29 12:29:22;;;;;;;2.93;0.77;;;5.80;81.90;;;;;;5090839;28;20425;-75
2020/12/29 12:31:48;;;;;;;1.10;0.63;;;5.80;82.50;;;;;;5090244;28;20692;-76
2020/12/29 12:34:14;;;;;;;0.93;0.60;;;5.80;82.80;;;;;;5090773;28;20175;-75
2020/12/29 12:36:40;;;;;;;2.67;1.07;;;5.80;83.30;;;;;;5092135;28;20195;-73
2020/12/29 12:39:06;;;;;;;1.70;0.77;;;5.90;83.60;;;;;;5092930;28;20179;-74
2020/12/29 12:41:32;;;;;;;1.63;0.73;;;6.00;83.70;;;;;;5092698;28;20175;-75
2020/12/29 12:43:58;;;;;;;1.10;0.80;;;6.00;83.70;;;;;;5092315;28;20464;-75
2020/12/29 12:46:23;;;;;;;2.97;1.20;;;5.90;84.10;;;;;;5092994;28;20457;-74
2020/12/29 12:48:49;;;;;;;1.40;0.97;;;5.90;84.60;;;;;;5090253;28;20409;-75
2020/12/29 12:51:15;;;;;;;3.80;1.00;;;5.90;85.50;;;;;;5090698;28;20619;-75
2020/12/29 12:53:42;;;;;;;2.03;1.20;;;5.80;85.70;;;;;;5090122;28;20245;-75
2020/12/29 12:56:15;;;;;;;3.07;1.47;;;6.00;86.30;;;;;;5088543;28;20436;-75
2020/12/29 12:58:44;;;;;;;1.20;0.80;;;6.00;86.30;;;;;;5088570;28;20459;-74